createdAt,value
2018-03-22T00:00:09.330Z,2.4
2018-03-22T00:01:11.752Z,2.4
2018-03-22T00:02:14.175Z,2.4
2018-03-22T00:03:16.902Z,2.4
2018-03-22T00:04:19.326Z,2.4
2018-03-22T00:05:22.021Z,2.4
2018-03-22T00:06:24.456Z,2.4
2018-03-22T00:07:26.888Z,2.4
2018-03-22T00:08:29.320Z,2.4
2018-03-22T00:09:31.754Z,2.4
2018-03-22T00:10:34.170Z,2.4
2018-03-22T00:11:36.896Z,2.4
2018-03-22T00:12:39.314Z,2.4
2018-03-22T00:13:41.744Z,2.4
2018-03-22T00:14:44.166Z,2.4
2018-03-22T00:15:46.616Z,2.3
2018-03-22T00:16:49.037Z,2.3
2018-03-22T00:17:51.476Z,2.3
2018-03-22T00:18:53.895Z,2.3
2018-03-22T00:19:56.637Z,2.4
2018-03-22T00:20:59.064Z,2.4
2018-03-22T00:22:01.491Z,2.3
2018-03-22T00:23:04.377Z,2.3
2018-03-22T00:24:06.896Z,2.3
2018-03-22T00:25:09.620Z,2.3
2018-03-22T00:26:12.121Z,2.4
2018-03-22T00:27:14.799Z,2.4
2018-03-22T00:28:17.518Z,2.4
2018-03-22T00:29:19.942Z,2.3
2018-03-22T00:30:22.377Z,2.4
2018-03-22T00:31:24.793Z,2.3
2018-03-22T00:32:27.242Z,2.3
2018-03-22T00:33:29.724Z,2.4
2018-03-22T00:34:32.201Z,2.4
2018-03-22T00:35:34.580Z,2.4
2018-03-22T00:36:37.041Z,2.4
2018-03-22T00:37:39.464Z,2.4
2018-03-22T00:38:41.885Z,2.3
2018-03-22T00:39:44.312Z,2.3
2018-03-22T00:40:47.025Z,2.3
2018-03-22T00:41:49.446Z,2.4
2018-03-22T00:42:51.868Z,2.4
2018-03-22T00:43:54.589Z,2.3
2018-03-22T00:44:57.014Z,2.4
2018-03-22T00:45:59.461Z,2.4
2018-03-22T00:47:02.181Z,2.4
2018-03-22T00:48:04.607Z,2.3
2018-03-22T00:49:07.317Z,2.3
2018-03-22T00:50:09.751Z,2.4
2018-03-22T00:51:12.272Z,2.4
2018-03-22T00:52:14.695Z,2.4
2018-03-22T00:53:17.425Z,2.4
2018-03-22T00:54:19.897Z,2.4
2018-03-22T00:55:22.337Z,2.4
2018-03-22T00:56:25.048Z,2.4
2018-03-22T00:57:27.488Z,2.4
2018-03-22T00:58:29.908Z,2.4
2018-03-22T00:59:32.622Z,2.4
2018-03-22T01:00:35.054Z,2.4
2018-03-22T01:01:37.489Z,2.4
2018-03-22T01:02:39.915Z,2.4
2018-03-22T01:03:42.344Z,2.4
2018-03-22T01:04:44.793Z,2.4
2018-03-22T01:05:47.214Z,2.4
2018-03-22T01:06:49.649Z,2.4
2018-03-22T01:07:52.355Z,2.4
2018-03-22T01:08:54.782Z,2.4
2018-03-22T01:09:57.486Z,2.4
2018-03-22T01:11:00.209Z,2.4
2018-03-22T01:12:02.929Z,2.4
2018-03-22T01:13:05.420Z,2.4
2018-03-22T01:14:07.840Z,2.4
2018-03-22T01:15:10.560Z,2.4
2018-03-22T01:16:13.002Z,2.4
2018-03-22T01:17:15.454Z,2.5
2018-03-22T01:18:17.869Z,2.5
2018-03-22T01:19:20.285Z,2.5
2018-03-22T01:20:23.030Z,2.5
2018-03-22T01:21:25.473Z,2.5
2018-03-22T01:22:27.899Z,2.5
2018-03-22T01:23:30.337Z,2.5
2018-03-22T01:24:32.778Z,2.5
2018-03-22T01:25:35.501Z,2.5
2018-03-22T01:26:37.935Z,2.5
2018-03-22T01:27:40.393Z,2.5
2018-03-22T01:28:42.805Z,2.5
2018-03-22T01:29:45.523Z,2.5
2018-03-22T01:30:47.949Z,2.5
2018-03-22T01:31:50.372Z,2.5
2018-03-22T01:32:52.800Z,2.5
2018-03-22T01:33:55.218Z,2.5
2018-03-22T01:34:57.638Z,2.5
2018-03-22T01:36:00.393Z,2.5
2018-03-22T01:37:02.807Z,2.5
2018-03-22T01:38:05.230Z,2.5
2018-03-22T01:39:07.658Z,2.5
2018-03-22T01:40:10.110Z,2.5
2018-03-22T01:41:12.531Z,2.5
2018-03-22T01:42:14.960Z,2.6
2018-03-22T01:43:17.416Z,2.5
2018-03-22T01:44:20.126Z,2.6
2018-03-22T01:45:22.551Z,2.6
2018-03-22T01:46:24.970Z,2.5
2018-03-22T01:47:27.414Z,2.6
2018-03-22T01:48:29.833Z,2.6
2018-03-22T01:49:32.258Z,2.5
2018-03-22T01:50:34.663Z,2.5
2018-03-22T01:51:37.105Z,2.6
2018-03-22T01:52:39.516Z,2.5
2018-03-22T01:53:42.557Z,2.5
2018-03-22T01:54:45.262Z,2.5
2018-03-22T01:55:47.694Z,2.5
2018-03-22T01:56:50.123Z,2.5
2018-03-22T01:57:52.544Z,2.5
2018-03-22T01:58:55.287Z,2.5
2018-03-22T01:59:57.717Z,2.5
2018-03-22T02:01:00.134Z,2.5
2018-03-22T02:02:02.559Z,2.5
2018-03-22T02:03:04.981Z,2.6
2018-03-22T02:04:07.476Z,2.5
2018-03-22T02:05:09.905Z,2.5
2018-03-22T02:06:12.327Z,2.5
2018-03-22T02:07:14.756Z,2.5
2018-03-22T02:08:17.190Z,2.6
2018-03-22T02:09:19.600Z,2.5
2018-03-22T02:10:22.335Z,2.5
2018-03-22T02:11:24.772Z,2.5
2018-03-22T02:12:27.195Z,2.5
2018-03-22T02:13:29.901Z,2.5
2018-03-22T02:14:32.326Z,2.4
2018-03-22T02:15:34.750Z,2.4
2018-03-22T02:16:37.185Z,2.4
2018-03-22T02:17:39.614Z,2.3
2018-03-22T02:18:42.308Z,2.3
2018-03-22T02:19:44.737Z,2.3
2018-03-22T02:20:47.188Z,2.3
2018-03-22T02:21:50.173Z,2.3
2018-03-22T02:22:52.600Z,2.3
2018-03-22T02:23:55.005Z,2.2
2018-03-22T02:24:57.725Z,2.2
2018-03-22T02:26:00.697Z,2.4
2018-03-22T02:27:03.119Z,2.2
2018-03-22T02:28:05.545Z,2.2
2018-03-22T02:29:08.250Z,2.2
2018-03-22T02:30:10.679Z,2.2
2018-03-22T02:31:13.118Z,2.2
2018-03-22T02:32:15.579Z,2.1
2018-03-22T02:33:17.987Z,2.1
2018-03-22T02:34:20.422Z,2.1
2018-03-22T02:35:23.444Z,2
2018-03-22T02:36:25.949Z,2
2018-03-22T02:37:28.369Z,1.9
2018-03-22T02:38:30.800Z,1.9
2018-03-22T02:39:33.226Z,1.9
2018-03-22T02:40:35.646Z,1.8
2018-03-22T02:41:38.069Z,1.8
2018-03-22T02:42:40.804Z,1.8
2018-03-22T02:43:43.235Z,1.7
2018-03-22T02:44:46.250Z,1.7
2018-03-22T02:45:48.674Z,1.7
2018-03-22T02:46:51.097Z,1.7
2018-03-22T02:47:53.514Z,1.6
2018-03-22T02:48:56.527Z,1.5
2018-03-22T02:49:59.229Z,1.5
2018-03-22T02:51:01.741Z,1.5
2018-03-22T02:52:04.557Z,1.5
2018-03-22T02:53:06.986Z,1.5
2018-03-22T02:54:09.410Z,1.5
2018-03-22T02:55:11.836Z,1.5
2018-03-22T02:56:14.555Z,1.4
2018-03-22T02:57:17.014Z,1.4
2018-03-22T02:58:19.415Z,1.4
2018-03-22T02:59:22.152Z,1.3
2018-03-22T03:00:24.875Z,1.3
2018-03-22T03:01:27.284Z,1.3
2018-03-22T03:02:29.708Z,1.3
2018-03-22T03:03:32.135Z,1.2
2018-03-22T03:04:34.901Z,1.2
2018-03-22T03:05:37.366Z,1.2
2018-03-22T03:06:40.100Z,1.2
2018-03-22T03:07:42.813Z,1.1
2018-03-22T03:08:46.110Z,1.1
2018-03-22T03:09:48.533Z,1.1
2018-03-22T03:10:51.003Z,1.1
2018-03-22T03:11:53.427Z,1.2
2018-03-22T03:12:55.851Z,1.1
2018-03-22T03:13:58.282Z,1.1
2018-03-22T03:15:00.695Z,1
2018-03-22T03:16:03.445Z,1.1
2018-03-22T03:17:06.229Z,1.1
2018-03-22T03:18:08.660Z,1
2018-03-22T03:19:11.366Z,1
2018-03-22T03:20:14.077Z,1
2018-03-22T03:21:16.809Z,1
2018-03-22T03:22:19.232Z,1
2018-03-22T03:23:21.637Z,0.9
2018-03-22T03:24:24.065Z,0.9
2018-03-22T03:25:26.492Z,0.9
2018-03-22T03:26:28.914Z,0.9
2018-03-22T03:27:31.336Z,0.9
2018-03-22T03:28:33.752Z,0.9
2018-03-22T03:29:36.454Z,0.9
2018-03-22T03:30:38.894Z,0.9
2018-03-22T03:31:41.606Z,0.9
2018-03-22T03:32:44.031Z,0.9
2018-03-22T03:33:46.458Z,0.9
2018-03-22T03:34:48.892Z,0.9
2018-03-22T03:35:51.599Z,0.9
2018-03-22T03:36:54.024Z,0.9
2018-03-22T03:37:56.446Z,0.9
2018-03-22T03:38:58.869Z,0.9
2018-03-22T03:40:01.292Z,0.9
2018-03-22T03:41:04.011Z,0.9
2018-03-22T03:42:06.432Z,0.9
2018-03-22T03:43:08.857Z,0.9
2018-03-22T03:44:11.303Z,0.9
2018-03-22T03:45:14.065Z,0.8
2018-03-22T03:46:16.480Z,0.9
2018-03-22T03:47:18.905Z,0.9
2018-03-22T03:48:21.323Z,0.8
2018-03-22T03:49:24.025Z,0.8
2018-03-22T03:50:26.541Z,0.9
2018-03-22T03:51:29.238Z,0.9
2018-03-22T03:52:31.658Z,0.9
2018-03-22T03:53:34.089Z,0.9
2018-03-22T03:54:36.502Z,0.9
2018-03-22T03:55:38.935Z,0.9
2018-03-22T03:56:41.359Z,0.9
2018-03-22T03:57:44.067Z,0.9
2018-03-22T03:58:46.781Z,0.8
2018-03-22T03:59:49.211Z,0.8
2018-03-22T04:00:51.628Z,0.8
2018-03-22T04:01:54.059Z,0.8
2018-03-22T04:02:56.480Z,0.8
2018-03-22T04:03:58.952Z,0.8
2018-03-22T04:05:01.659Z,0.8
2018-03-22T04:06:04.066Z,0.8
2018-03-22T04:07:07.087Z,0.8
2018-03-22T04:08:09.513Z,0.8
2018-03-22T04:09:12.004Z,0.8
2018-03-22T04:10:15.003Z,0.8
2018-03-22T04:11:17.719Z,0.8
2018-03-22T04:12:20.140Z,0.8
2018-03-22T04:13:22.573Z,0.8
2018-03-22T04:14:25.296Z,0.8
2018-03-22T04:15:28.068Z,0.8
2018-03-22T04:16:30.495Z,0.8
2018-03-22T04:17:32.920Z,0.8
2018-03-22T04:18:35.371Z,0.8
2018-03-22T04:19:37.801Z,0.8
2018-03-22T04:20:40.219Z,0.8
2018-03-22T04:21:42.647Z,0.8
2018-03-22T04:22:45.065Z,0.8
2018-03-22T04:23:47.489Z,0.8
2018-03-22T04:24:49.907Z,0.8
2018-03-22T04:25:52.330Z,0.8
2018-03-22T04:26:54.793Z,0.8
2018-03-22T04:27:57.174Z,0.8
2018-03-22T04:28:59.587Z,0.8
2018-03-22T04:30:02.098Z,0.8
2018-03-22T04:31:04.832Z,0.8
2018-03-22T04:32:07.256Z,0.8
2018-03-22T04:33:09.684Z,0.8
2018-03-22T04:34:12.101Z,0.8
2018-03-22T04:35:14.830Z,0.8
2018-03-22T04:36:17.559Z,0.8
2018-03-22T04:37:20.270Z,0.8
2018-03-22T04:38:22.685Z,0.9
2018-03-22T04:39:25.329Z,0.8
2018-03-22T04:40:27.757Z,0.9
2018-03-22T04:41:30.462Z,0.8
2018-03-22T04:42:33.213Z,0.8
2018-03-22T04:43:35.596Z,0.9
2018-03-22T04:44:38.311Z,0.9
2018-03-22T04:45:40.741Z,0.8
2018-03-22T04:46:43.157Z,0.9
2018-03-22T04:47:45.603Z,0.9
2018-03-22T04:48:48.081Z,0.8
2018-03-22T04:49:50.496Z,0.9
2018-03-22T04:50:53.205Z,0.8
2018-03-22T04:51:55.619Z,0.8
2018-03-22T04:52:58.042Z,0.9
2018-03-22T04:54:00.475Z,0.9
2018-03-22T04:55:02.990Z,0.8
2018-03-22T04:56:05.743Z,0.9
2018-03-22T04:57:08.167Z,0.9
2018-03-22T04:58:10.597Z,0.9
2018-03-22T04:59:13.035Z,0.9
2018-03-22T05:00:15.445Z,0.9
2018-03-22T05:01:17.859Z,0.9
2018-03-22T05:02:20.572Z,0.9
2018-03-22T05:03:23.215Z,0.9
2018-03-22T05:04:25.932Z,0.9
2018-03-22T05:05:28.338Z,0.9
2018-03-22T05:06:31.075Z,0.9
2018-03-22T05:07:33.507Z,0.9
2018-03-22T05:08:35.927Z,0.9
2018-03-22T05:09:38.343Z,0.9
2018-03-22T05:10:40.773Z,0.9
2018-03-22T05:11:43.468Z,0.9
2018-03-22T05:12:45.904Z,0.9
2018-03-22T05:14:18.380Z,1
2018-03-22T05:15:20.795Z,1
2018-03-22T05:16:23.219Z,0.9
2018-03-22T05:17:25.729Z,0.9
2018-03-22T05:18:28.490Z,1
2018-03-22T05:19:30.922Z,0.9
2018-03-22T05:20:33.338Z,0.9
2018-03-22T05:21:35.834Z,1
2018-03-22T05:22:38.256Z,1
2018-03-22T05:23:40.717Z,0.9
2018-03-22T05:24:43.139Z,0.9
2018-03-22T05:25:45.557Z,1
2018-03-22T05:26:48.283Z,0.9
2018-03-22T05:27:50.761Z,1
2018-03-22T05:28:53.185Z,1
2018-03-22T05:29:55.594Z,1
2018-03-22T05:30:58.026Z,0.9
2018-03-22T05:32:00.462Z,0.9
2018-03-22T05:33:02.887Z,0.9
2018-03-22T05:34:05.318Z,0.9
2018-03-22T05:35:07.736Z,0.9
2018-03-22T05:36:10.276Z,0.9
2018-03-22T05:37:12.704Z,0.9
2018-03-22T05:38:15.122Z,1
2018-03-22T05:39:17.548Z,0.9
2018-03-22T05:40:19.977Z,0.9
2018-03-22T05:41:22.381Z,0.9
2018-03-22T05:42:24.861Z,1
2018-03-22T05:43:27.531Z,0.9
2018-03-22T05:44:30.249Z,0.9
2018-03-22T05:45:32.963Z,1
2018-03-22T05:46:35.671Z,1
2018-03-22T05:47:38.090Z,1
2018-03-22T05:48:40.521Z,1
2018-03-22T05:49:43.236Z,0.9
2018-03-22T05:50:45.665Z,1
2018-03-22T05:51:48.089Z,0.9
2018-03-22T05:52:50.513Z,1
2018-03-22T05:53:52.941Z,1
2018-03-22T05:54:55.648Z,1
2018-03-22T05:55:58.059Z,1
2018-03-22T05:57:00.482Z,1
2018-03-22T05:58:02.910Z,0.9
2018-03-22T05:59:05.331Z,1
2018-03-22T06:00:07.751Z,1
2018-03-22T06:01:10.181Z,1
2018-03-22T06:02:12.598Z,1
2018-03-22T06:03:15.037Z,1
2018-03-22T06:04:17.443Z,1
2018-03-22T06:05:19.883Z,1
2018-03-22T06:06:22.295Z,1
2018-03-22T06:07:24.998Z,1
2018-03-22T06:08:27.424Z,1
2018-03-22T06:09:30.137Z,1
2018-03-22T06:10:32.555Z,1
2018-03-22T06:11:34.995Z,1.1
2018-03-22T06:12:37.408Z,1.1
2018-03-22T06:13:39.830Z,1.1
2018-03-22T06:14:42.257Z,1.1
2018-03-22T06:15:44.969Z,1.1
2018-03-22T06:16:47.701Z,1.1
2018-03-22T06:17:50.124Z,1.1
2018-03-22T06:18:52.844Z,1.1
2018-03-22T06:19:55.550Z,1.1
2018-03-22T06:20:57.974Z,1.1
2018-03-22T06:22:00.394Z,1.1
2018-03-22T06:23:03.098Z,1.1
2018-03-22T06:24:05.810Z,1.1
2018-03-22T06:25:08.235Z,1.1
2018-03-22T06:26:10.949Z,1.1
2018-03-22T06:27:13.378Z,1.2
2018-03-22T06:28:15.808Z,1.2
2018-03-22T06:29:18.517Z,1.2
2018-03-22T06:30:20.947Z,1.2
2018-03-22T06:31:23.361Z,1.2
2018-03-22T06:32:26.106Z,1.2
2018-03-22T06:33:28.815Z,1.2
2018-03-22T06:34:31.235Z,1.2
2018-03-22T06:35:33.659Z,1.2
2018-03-22T06:36:36.095Z,1.2
2018-03-22T06:37:38.532Z,1.2
2018-03-22T06:38:40.952Z,1.2
2018-03-22T06:39:43.376Z,1.3
2018-03-22T06:40:45.806Z,1.3
2018-03-22T06:41:48.225Z,1.3
2018-03-22T06:42:50.647Z,1.3
2018-03-22T06:43:53.057Z,1.3
2018-03-22T06:44:55.766Z,1.3
2018-03-22T06:45:58.209Z,1.3
2018-03-22T06:47:00.924Z,1.3
2018-03-22T06:48:03.348Z,1.3
2018-03-22T06:49:05.766Z,1.3
2018-03-22T06:50:08.189Z,1.3
2018-03-22T06:51:10.608Z,1.4
2018-03-22T06:52:13.050Z,1.4
2018-03-22T06:53:15.476Z,1.4
2018-03-22T06:54:18.191Z,1.4
2018-03-22T06:55:20.630Z,1.4
2018-03-22T06:56:23.043Z,1.4
2018-03-22T06:57:25.470Z,1.4
2018-03-22T06:58:28.172Z,1.5
2018-03-22T06:59:30.590Z,1.5
2018-03-22T07:00:33.015Z,1.5
2018-03-22T07:01:35.440Z,1.5
2018-03-22T07:02:37.861Z,1.5
2018-03-22T07:03:40.577Z,1.5
2018-03-22T07:04:43.006Z,1.5
2018-03-22T07:05:45.435Z,1.5
2018-03-22T07:06:47.857Z,1.5
2018-03-22T07:07:50.286Z,1.5
2018-03-22T07:08:53.000Z,1.6
2018-03-22T07:09:55.422Z,1.6
2018-03-22T07:10:57.846Z,1.6
2018-03-22T07:12:00.258Z,1.6
2018-03-22T07:13:02.976Z,1.6
2018-03-22T07:14:05.397Z,1.6
2018-03-22T07:15:07.828Z,1.7
2018-03-22T07:16:10.544Z,1.7
2018-03-22T07:17:12.969Z,1.7
2018-03-22T07:18:15.391Z,1.7
2018-03-22T07:19:17.841Z,1.7
2018-03-22T07:20:20.267Z,1.7
2018-03-22T07:21:22.964Z,1.7
2018-03-22T07:22:25.705Z,1.7
2018-03-22T07:23:28.419Z,1.7
2018-03-22T07:24:30.851Z,1.8
2018-03-22T07:25:33.562Z,1.8
2018-03-22T07:26:35.982Z,1.8
2018-03-22T07:27:38.399Z,1.8
2018-03-22T07:28:40.834Z,1.8
2018-03-22T07:29:43.543Z,1.8
2018-03-22T07:30:46.246Z,1.8
2018-03-22T07:31:48.966Z,1.8
2018-03-22T07:32:51.412Z,1.9
2018-03-22T07:33:53.835Z,1.8
2018-03-22T07:34:56.265Z,1.9
2018-03-22T07:35:58.703Z,1.9
2018-03-22T07:37:01.122Z,1.9
2018-03-22T07:38:03.840Z,1.9
2018-03-22T07:39:06.256Z,1.9
2018-03-22T07:40:08.691Z,1.9
2018-03-22T07:41:11.114Z,2
2018-03-22T07:42:13.545Z,2
2018-03-22T07:43:15.949Z,2
2018-03-22T07:44:18.384Z,2
2018-03-22T07:45:20.815Z,2
2018-03-22T07:46:23.818Z,2
2018-03-22T07:47:26.237Z,2
2018-03-22T07:48:28.662Z,2
2018-03-22T07:49:31.095Z,2.1
2018-03-22T07:50:33.505Z,2.1
2018-03-22T07:51:35.933Z,2
2018-03-22T07:52:38.409Z,2
2018-03-22T07:53:40.770Z,2.1
2018-03-22T07:54:43.211Z,2.1
2018-03-22T07:55:45.625Z,2.1
2018-03-22T07:56:48.060Z,2.1
2018-03-22T07:57:50.766Z,2.1
2018-03-22T07:58:53.213Z,2.2
2018-03-22T07:59:55.905Z,2.2
2018-03-22T08:00:58.391Z,2.2
2018-03-22T08:02:00.803Z,2.2
2018-03-22T08:03:03.846Z,2.2
2018-03-22T08:04:06.276Z,2.2
2018-03-22T08:05:08.695Z,2.2
2018-03-22T08:06:11.125Z,2.2
2018-03-22T08:07:13.551Z,2.2
2018-03-22T08:08:16.258Z,2.3
2018-03-22T08:09:18.704Z,2.3
2018-03-22T08:10:21.430Z,2.3
2018-03-22T08:11:23.834Z,2.3
2018-03-22T08:12:26.339Z,2.3
2018-03-22T08:13:28.702Z,2.3
2018-03-22T08:14:31.138Z,2.3
2018-03-22T08:15:33.577Z,2.3
2018-03-22T08:16:36.302Z,2.3
2018-03-22T08:17:38.740Z,2.3
2018-03-22T08:18:41.227Z,2.3
2018-03-22T08:19:43.652Z,2.3
2018-03-22T08:20:46.088Z,2.4
2018-03-22T08:21:48.515Z,2.4
2018-03-22T08:22:50.945Z,2.4
2018-03-22T08:23:53.394Z,2.3
2018-03-22T08:24:55.817Z,2.4
2018-03-22T08:25:58.252Z,2.5
2018-03-22T08:27:00.714Z,2.5
2018-03-22T08:28:03.141Z,2.5
2018-03-22T08:29:05.874Z,2.5
2018-03-22T08:30:08.300Z,2.6
2018-03-22T08:31:11.045Z,2.5
2018-03-22T08:32:13.535Z,2.6
2018-03-22T08:33:15.923Z,2.5
2018-03-22T08:34:18.364Z,2.5
2018-03-22T08:35:20.815Z,2.5
2018-03-22T08:36:23.517Z,2.5
2018-03-22T08:37:25.952Z,2.5
2018-03-22T08:38:28.386Z,2.5
2018-03-22T08:39:30.818Z,2.5
2018-03-22T08:40:33.292Z,2.5
2018-03-22T08:41:35.733Z,2.5
2018-03-22T08:42:38.211Z,2.5
2018-03-22T08:43:40.644Z,2.5
2018-03-22T08:44:43.129Z,2.5
2018-03-22T08:45:45.554Z,2.5
2018-03-22T08:46:48.272Z,2.6
2018-03-22T08:47:50.703Z,2.6
2018-03-22T08:48:53.140Z,2.6
2018-03-22T08:49:55.571Z,2.6
2018-03-22T08:50:57.985Z,2.6
2018-03-22T08:52:00.421Z,2.7
2018-03-22T08:53:02.845Z,2.6
2018-03-22T08:54:05.269Z,2.6
2018-03-22T08:55:07.699Z,2.6
2018-03-22T08:56:10.118Z,2.6
2018-03-22T08:57:12.599Z,2.6
2018-03-22T08:58:15.035Z,2.6
2018-03-22T08:59:17.803Z,2.6
2018-03-22T09:00:21.535Z,2.6
2018-03-22T09:01:23.967Z,2.6
2018-03-22T09:02:26.703Z,2.6
2018-03-22T09:03:29.127Z,2.6
2018-03-22T09:04:31.579Z,2.6
2018-03-22T09:05:34.015Z,2.6
2018-03-22T09:06:36.447Z,2.7
2018-03-22T09:07:38.871Z,2.7
2018-03-22T09:08:41.314Z,2.7
2018-03-22T09:09:44.077Z,2.7
2018-03-22T09:10:46.783Z,2.7
2018-03-22T09:11:49.204Z,2.7
2018-03-22T09:12:52.193Z,2.7
2018-03-22T09:13:54.915Z,2.7
2018-03-22T09:14:57.344Z,2.8
2018-03-22T09:15:59.774Z,2.7
2018-03-22T09:17:02.214Z,2.8
2018-03-22T09:18:04.638Z,2.8
2018-03-22T09:19:07.062Z,2.8
2018-03-22T09:20:09.494Z,2.8
2018-03-22T09:21:11.919Z,2.8
2018-03-22T09:22:14.341Z,2.7
2018-03-22T09:23:16.785Z,2.8
2018-03-22T09:24:19.492Z,2.8
2018-03-22T09:25:21.938Z,2.8
2018-03-22T09:26:24.650Z,2.8
2018-03-22T09:27:27.077Z,2.8
2018-03-22T09:28:29.500Z,2.8
2018-03-22T09:29:31.932Z,2.9
2018-03-22T09:30:34.351Z,2.9
2018-03-22T09:31:37.356Z,2.9
2018-03-22T09:32:39.799Z,2.9
2018-03-22T09:33:42.225Z,3
2018-03-22T09:34:44.638Z,3
2018-03-22T09:35:47.069Z,2.9
2018-03-22T09:36:49.506Z,2.9
2018-03-22T09:37:51.936Z,3
2018-03-22T09:38:54.362Z,3
2018-03-22T09:39:56.797Z,3
2018-03-22T09:40:59.502Z,3.1
2018-03-22T09:42:01.941Z,3
2018-03-22T09:43:04.665Z,3
2018-03-22T09:44:07.437Z,3
2018-03-22T09:45:09.871Z,3.1
2018-03-22T09:46:12.294Z,3.1
2018-03-22T09:47:15.019Z,3.1
2018-03-22T09:48:17.446Z,3.1
2018-03-22T09:49:20.144Z,3.2
2018-03-22T09:50:22.582Z,3.2
2018-03-22T09:51:25.302Z,3.2
2018-03-22T09:52:27.730Z,3.2
2018-03-22T09:53:30.475Z,3.2
2018-03-22T09:54:32.900Z,3.2
2018-03-22T09:55:35.328Z,3.3
2018-03-22T09:56:37.774Z,3.3
2018-03-22T09:57:40.195Z,3.3
2018-03-22T09:58:42.612Z,3.3
2018-03-22T09:59:45.042Z,3.3
2018-03-22T10:00:47.466Z,3.3
2018-03-22T10:01:49.898Z,3.3
2018-03-22T10:02:52.376Z,3.3
2018-03-22T10:03:55.122Z,3.4
2018-03-22T10:04:57.551Z,3.4
2018-03-22T10:05:59.979Z,3.4
2018-03-22T10:07:02.416Z,3.4
2018-03-22T10:08:05.129Z,3.4
2018-03-22T10:09:07.551Z,3.4
2018-03-22T10:10:09.985Z,3.5
2018-03-22T10:11:12.405Z,3.5
2018-03-22T10:12:14.847Z,3.5
2018-03-22T10:13:17.278Z,3.5
2018-03-22T10:14:19.990Z,3.5
2018-03-22T10:15:22.412Z,3.5
2018-03-22T10:16:24.926Z,3.5
2018-03-22T10:17:27.553Z,3.6
2018-03-22T10:18:29.989Z,3.6
2018-03-22T10:19:33.037Z,3.6
2018-03-22T10:20:35.649Z,3.6
2018-03-22T10:21:38.714Z,3.6
2018-03-22T10:22:41.144Z,3.7
2018-03-22T10:23:43.556Z,3.7
2018-03-22T10:24:46.004Z,3.7
2018-03-22T10:25:48.428Z,3.7
2018-03-22T10:26:50.847Z,3.7
2018-03-22T10:27:53.272Z,3.7
2018-03-22T10:28:55.980Z,3.8
2018-03-22T10:29:58.406Z,3.8
2018-03-22T10:31:00.834Z,3.8
2018-03-22T10:32:03.277Z,3.8
2018-03-22T10:33:05.708Z,3.8
2018-03-22T10:34:08.138Z,4
2018-03-22T10:35:10.561Z,4
2018-03-22T10:36:13.301Z,4
2018-03-22T10:37:15.726Z,4
2018-03-22T10:38:18.470Z,3.9
2018-03-22T10:39:20.885Z,3.9
2018-03-22T10:40:23.344Z,4
2018-03-22T10:41:25.828Z,4
2018-03-22T10:42:28.315Z,4.1
2018-03-22T10:43:30.818Z,4
2018-03-22T10:44:33.334Z,4
2018-03-22T10:45:36.161Z,4.1
2018-03-22T10:46:38.626Z,4.1
2018-03-22T10:47:41.100Z,4
2018-03-22T10:48:43.591Z,4.1
2018-03-22T10:49:46.354Z,4.1
2018-03-22T10:50:48.860Z,4.2
2018-03-22T10:51:51.870Z,4.2
2018-03-22T10:52:54.303Z,4.2
2018-03-22T10:53:56.779Z,4.3
2018-03-22T10:54:59.189Z,4.3
2018-03-22T10:56:01.724Z,4.3
2018-03-22T10:57:04.195Z,4.3
2018-03-22T10:58:06.674Z,4.4
2018-03-22T10:59:09.166Z,4.3
2018-03-22T11:00:11.652Z,4.4
2018-03-22T11:01:14.160Z,4.4
2018-03-22T11:02:16.589Z,4.5
2018-03-22T11:03:19.095Z,4.5
2018-03-22T11:04:21.527Z,4.4
2018-03-22T11:05:23.976Z,4.5
2018-03-22T11:06:26.409Z,4.5
2018-03-22T11:07:28.840Z,4.5
2018-03-22T11:08:31.273Z,4.5
2018-03-22T11:09:33.702Z,4.5
2018-03-22T11:10:36.128Z,4.5
2018-03-22T11:11:38.849Z,4.5
2018-03-22T11:12:41.290Z,4.6
2018-03-22T11:13:43.716Z,4.6
2018-03-22T11:14:46.709Z,4.6
2018-03-22T11:15:49.158Z,4.6
2018-03-22T11:16:51.578Z,4.6
2018-03-22T11:17:54.007Z,4.6
2018-03-22T11:18:56.442Z,4.7
2018-03-22T11:19:59.149Z,4.7
2018-03-22T11:21:01.866Z,4.7
2018-03-22T11:22:04.586Z,4.7
2018-03-22T11:23:07.011Z,4.8
2018-03-22T11:24:09.434Z,4.8
2018-03-22T11:25:11.869Z,4.8
2018-03-22T11:26:14.298Z,4.8
2018-03-22T11:27:16.719Z,4.8
2018-03-22T11:28:19.438Z,4.8
2018-03-22T11:29:21.859Z,4.8
2018-03-22T11:30:24.291Z,4.8
2018-03-22T11:31:26.730Z,4.8
2018-03-22T11:32:29.146Z,4.9
2018-03-22T11:33:31.577Z,4.9
2018-03-22T11:34:34.018Z,4.9
2018-03-22T11:35:36.443Z,4.9
2018-03-22T11:36:38.866Z,4.9
2018-03-22T11:37:41.303Z,4.9
2018-03-22T11:38:43.726Z,4.9
2018-03-22T11:39:46.166Z,4.9
2018-03-22T11:40:48.613Z,5
2018-03-22T11:41:51.043Z,4.9
2018-03-22T11:42:53.481Z,4.9
2018-03-22T11:43:56.193Z,5
2018-03-22T11:44:58.612Z,5
2018-03-22T11:46:01.039Z,5.1
2018-03-22T11:47:04.051Z,5.1
2018-03-22T11:48:06.480Z,5.1
2018-03-22T11:49:08.908Z,5.1
2018-03-22T11:50:11.342Z,5.2
2018-03-22T11:51:14.360Z,5.2
2018-03-22T11:52:16.791Z,5.2
2018-03-22T11:53:19.239Z,5.2
2018-03-22T11:54:21.690Z,5.2
2018-03-22T11:55:24.415Z,5.2
2018-03-22T11:56:26.863Z,5.2
2018-03-22T11:57:29.280Z,5.2
2018-03-22T11:58:31.711Z,5.2
2018-03-22T11:59:34.145Z,5.3
2018-03-22T12:00:36.581Z,5.2
2018-03-22T12:01:39.006Z,5.3
2018-03-22T12:02:41.426Z,5.3
2018-03-22T12:03:43.862Z,5.3
2018-03-22T12:04:46.309Z,5.3
2018-03-22T12:05:48.729Z,5.3
2018-03-22T12:06:51.158Z,5.4
2018-03-22T12:07:53.585Z,5.4
2018-03-22T12:08:56.022Z,5.4
2018-03-22T12:09:58.460Z,5.4
2018-03-22T12:11:01.241Z,5.5
2018-03-22T12:12:03.951Z,5.4
2018-03-22T12:13:06.381Z,5.5
2018-03-22T12:14:08.807Z,5.5
2018-03-22T12:15:11.238Z,5.5
2018-03-22T12:16:13.669Z,5.6
2018-03-22T12:17:16.105Z,5.5
2018-03-22T12:18:18.614Z,5.5
2018-03-22T12:19:21.051Z,5.6
2018-03-22T12:20:23.541Z,5.6
2018-03-22T12:21:26.025Z,5.6
2018-03-22T12:22:28.749Z,5.7
2018-03-22T12:23:31.184Z,5.7
2018-03-22T12:24:33.632Z,5.7
2018-03-22T12:25:36.776Z,5.7
2018-03-22T12:26:39.199Z,5.8
2018-03-22T12:27:41.918Z,5.8
2018-03-22T12:28:44.637Z,5.8
2018-03-22T12:29:47.067Z,5.8
2018-03-22T12:30:49.503Z,5.8
2018-03-22T12:31:51.930Z,5.9
2018-03-22T12:32:54.651Z,5.8
2018-03-22T12:33:57.084Z,5.9
2018-03-22T12:34:59.514Z,5.9
2018-03-22T12:36:01.959Z,5.9
2018-03-22T12:37:04.388Z,5.9
2018-03-22T12:38:07.145Z,5.9
2018-03-22T12:39:09.561Z,5.9
2018-03-22T12:40:11.989Z,5.9
2018-03-22T12:41:14.446Z,5.9
2018-03-22T12:42:16.886Z,6
2018-03-22T12:43:19.391Z,6
2018-03-22T12:44:21.756Z,6.1
2018-03-22T12:45:24.174Z,6
2018-03-22T12:46:26.615Z,6
2018-03-22T12:47:29.094Z,6.1
2018-03-22T12:48:31.560Z,6.1
2018-03-22T12:49:34.063Z,6.1
2018-03-22T12:50:36.781Z,6.1
2018-03-22T12:51:39.225Z,6.2
2018-03-22T12:52:41.666Z,6.1
2018-03-22T12:53:44.094Z,6.1
2018-03-22T12:54:46.518Z,6.1
2018-03-22T12:55:48.959Z,6.2
2018-03-22T12:56:51.398Z,6.2
2018-03-22T12:57:53.830Z,6.3
2018-03-22T12:58:56.552Z,6.3
2018-03-22T12:59:59.024Z,6.3
2018-03-22T13:01:01.747Z,6.3
2018-03-22T13:02:04.492Z,6.3
2018-03-22T13:03:07.212Z,6.3
2018-03-22T13:04:09.650Z,6.4
2018-03-22T13:05:12.106Z,6.4
2018-03-22T13:06:14.834Z,6.3
2018-03-22T13:07:17.262Z,6.4
2018-03-22T13:08:19.985Z,6.4
2018-03-22T13:09:22.452Z,6.5
2018-03-22T13:10:24.932Z,6.5
2018-03-22T13:11:27.690Z,6.5
2018-03-22T13:12:30.702Z,6.5
2018-03-22T13:13:33.459Z,6.5
2018-03-22T13:14:35.972Z,6.5
2018-03-22T13:15:38.408Z,6.5
2018-03-22T13:16:41.276Z,6.4
2018-03-22T13:17:44.030Z,6.4
2018-03-22T13:18:46.690Z,6.5
2018-03-22T13:19:49.142Z,6.5
2018-03-22T13:20:51.568Z,6.6
2018-03-22T13:21:54.075Z,6.6
2018-03-22T13:22:56.793Z,6.6
2018-03-22T13:23:59.225Z,6.5
2018-03-22T13:25:01.660Z,6.5
2018-03-22T13:26:04.091Z,6.5
2018-03-22T13:27:06.541Z,6.5
2018-03-22T13:28:09.267Z,6.5
2018-03-22T13:29:12.011Z,6.5
2018-03-22T13:30:14.735Z,6.5
2018-03-22T13:31:17.217Z,6.6
2018-03-22T13:32:19.974Z,6.6
2018-03-22T13:33:23.023Z,6.6
2018-03-22T13:34:25.456Z,6.6
2018-03-22T13:35:27.954Z,6.7
2018-03-22T13:36:30.665Z,6.8
2018-03-22T13:37:33.092Z,6.9
2018-03-22T13:38:35.528Z,6.9
2018-03-22T13:39:38.256Z,7.1
2018-03-22T13:40:40.686Z,7.2
2018-03-22T13:41:43.126Z,7.1
2018-03-22T13:42:45.545Z,7.1
2018-03-22T13:43:47.989Z,7.2
2018-03-22T13:44:50.422Z,7.2
2018-03-22T13:45:52.920Z,7.1
2018-03-22T13:46:55.655Z,7.1
2018-03-22T13:47:58.088Z,7.1
2018-03-22T13:49:00.516Z,6.9
2018-03-22T13:50:03.029Z,6.9
2018-03-22T13:51:05.506Z,6.9
2018-03-22T13:52:08.282Z,6.9
2018-03-22T13:53:10.796Z,7
2018-03-22T13:54:13.288Z,6.9
2018-03-22T13:55:16.111Z,7
2018-03-22T13:56:18.571Z,7
2018-03-22T13:57:21.050Z,7
2018-03-22T13:58:23.537Z,7
2018-03-22T13:59:26.047Z,7.1
2018-03-22T14:00:28.584Z,6.9
2018-03-22T14:01:31.398Z,7
2018-03-22T14:02:33.903Z,7.1
2018-03-22T14:03:36.721Z,7.1
2018-03-22T14:04:39.155Z,7.2
2018-03-22T14:05:41.974Z,7.1
2018-03-22T14:06:44.411Z,7.1
2018-03-22T14:07:46.847Z,7.2
2018-03-22T14:08:49.551Z,7.2
2018-03-22T14:09:51.997Z,7.3
2018-03-22T14:10:54.423Z,7.2
2018-03-22T14:11:56.869Z,7.3
2018-03-22T14:12:59.298Z,7.3
2018-03-22T14:14:01.721Z,7.4
2018-03-22T14:15:04.463Z,7.5
2018-03-22T14:16:06.916Z,7.5
2018-03-22T14:17:09.638Z,7.4
2018-03-22T14:18:12.358Z,7.3
2018-03-22T14:19:15.085Z,7.2
2018-03-22T14:20:17.524Z,7.2
2018-03-22T14:21:20.253Z,7.1
2018-03-22T14:22:22.987Z,7.1
2018-03-22T14:23:25.420Z,7.1
2018-03-22T14:24:27.850Z,7.1
2018-03-22T14:25:30.291Z,7.1
2018-03-22T14:26:32.734Z,6.9